PWSweather.com
Personal Weather Stations
Station Observations
KCOGRAND2
Redlands, Southcamp Road & Dakota Circle, Grand Junction, CO 81507

Redlands, Southcamp Road & Dakota CircleGrand Junction, CO 81507

Lat: 39.055, Lon: -108.637

Elevation: 4870

Station Type: RadioShack WX200

High Low Average
Temperature 101.5°F38.6°F 66.0°F18.9°F 85.2°F29.6°F
Dew Point 0.0°F-17.8°F 0.0°F-17.8°F 0.0°F-17.8°F
Winds 16.0 mph SSW25.7 mph SSW Calm Calm 5.2 mph 8.4 mph
Wind Gusts 22.8 mph36.7 mph 2.7 mph4.3 mph 9.1 mph14.6 mph
Humidity 0% 0% 0%
Pressure 25.16 in852.00 in 25.01 in846.90 in -
Precipitation 0.00 in0.00 in - -
Hour Temp Dew Point Humidity Winds Wind Gusts Pressure Precip Precip Rate Daily Precip Total
12:02 AM 80.1°F26.7°C -5537.2°C - 1.0 mph SW1.6 kmh SW 3.6 mph5.8 kmh 25.10 in850.0 mb 0.00 in0.0 mm 0.00 in0.0 mm 0.00 in0.0 mm
12:07 AM 80.6°F27.0°C -5537.2°C - 2.0 mph SW3.2 kmh SW 5.8 mph9.3 kmh 25.10 in850.0 mb 0.00 in0.0 mm 0.00 in0.0 mm 0.00 in0.0 mm
12:12 AM 80.8°F27.1°C -5537.2°C - 3.0 mph WSW4.8 kmh WSW 8.7 mph14.0 kmh 25.10 in850.0 mb 0.00 in0.0 mm 0.00 in0.0 mm 0.00 in0.0 mm
12:17 AM 81.5°F27.5°C -5537.2°C - 4.0 mph W6.4 kmh W 7.4 mph11.9 kmh 25.10 in850.0 mb 0.00 in0.0 mm 0.00 in0.0 mm 0.00 in0.0 mm
12:22 AM 80.4°F26.9°C -5537.2°C - 3.0 mph WNW4.8 kmh WNW 4.5 mph7.2 kmh 25.10 in850.0 mb 0.00 in0.0 mm 0.00 in0.0 mm 0.00 in0.0 mm
12:27 AM 79.0°F26.1°C -5537.2°C - 2.0 mph W3.2 kmh W 6.3 mph10.1 kmh 25.10 in850.0 mb 0.00 in0.0 mm 0.00 in0.0 mm 0.00 in0.0 mm
12:32 AM 79.7°F26.5°C -5537.2°C - 4.0 mph SW6.4 kmh SW 7.8 mph12.6 kmh 25.10 in850.0 mb 0.00 in0.0 mm 0.00 in0.0 mm 0.00 in0.0 mm
12:37 AM 78.6°F25.9°C -5537.2°C - 3.0 mph WSW4.8 kmh WSW 5.4 mph8.7 kmh 25.10 in850.0 mb 0.00 in0.0 mm 0.00 in0.0 mm 0.00 in0.0 mm
12:42 AM 77.4°F25.2°C -5537.2°C - 1.0 mph WSW1.6 kmh WSW 4.0 mph6.4 kmh 25.10 in850.0 mb 0.00 in0.0 mm 0.00 in0.0 mm 0.00 in0.0 mm
12:47 AM 77.0°F25.0°C -5537.2°C - 2.0 mph W3.2 kmh W 5.8 mph9.3 kmh 25.10 in850.0 mb 0.00 in0.0 mm 0.00 in0.0 mm 0.00 in0.0 mm
12:52 AM 78.4°F25.8°C -5537.2°C - 2.0 mph NW3.2 kmh NW 6.3 mph10.1 kmh 25.10 in850.0 mb 0.00 in0.0 mm 0.00 in0.0 mm 0.00 in0.0 mm
12:57 AM 76.1°F24.5°C -5537.2°C - 2.0 mph NE3.2 kmh NE 4.9 mph7.9 kmh 25.10 in850.0 mb 0.00 in0.0 mm 0.00 in0.0 mm 0.00 in0.0 mm
01:02 AM 75.0°F23.9°C -5537.2°C - 3.0 mph NE4.8 kmh NE 6.3 mph10.1 kmh 25.10 in850.0 mb 0.00 in0.0 mm 0.00 in0.0 mm 0.00 in0.0 mm
01:07 AM 75.0°F23.9°C -5537.2°C - 4.0 mph NNE6.4 kmh NNE 5.8 mph9.3 kmh 25.10 in850.0 mb 0.00 in0.0 mm 0.00 in0.0 mm 0.00 in0.0 mm
01:12 AM 74.8°F23.8°C -5537.2°C - 3.0 mph N4.8 kmh N 5.8 mph9.3 kmh 25.10 in850.0 mb 0.00 in0.0 mm 0.00 in0.0 mm 0.00 in0.0 mm
01:17 AM 75.4°F24.1°C -5537.2°C - 3.0 mph N4.8 kmh N 6.7 mph10.8 kmh 25.10 in850.0 mb 0.00 in0.0 mm 0.00 in0.0 mm 0.00 in0.0 mm
01:22 AM 75.7°F24.3°C -5537.2°C - 4.0 mph N6.4 kmh N 5.8 mph9.3 kmh 25.10 in850.0 mb 0.00 in0.0 mm 0.00 in0.0 mm 0.00 in0.0 mm
01:27 AM 77.2°F25.1°C -5537.2°C - 4.0 mph N6.4 kmh N 5.8 mph9.3 kmh 25.10 in850.0 mb 0.00 in0.0 mm 0.00 in0.0 mm 0.00 in0.0 mm
01:32 AM 75.2°F24.0°C -5537.2°C - 3.0 mph N4.8 kmh N 4.9 mph7.9 kmh 25.10 in850.0 mb 0.00 in0.0 mm 0.00 in0.0 mm 0.00 in0.0 mm
01:37 AM 74.5°F23.6°C -5537.2°C - 2.0 mph N3.2 kmh N 3.6 mph5.8 kmh 25.10 in850.0 mb 0.00 in0.0 mm 0.00 in0.0 mm 0.00 in0.0 mm
01:42 AM 74.8°F23.8°C -5537.2°C - 1.0 mph N1.6 kmh N 4.0 mph6.4 kmh 25.10 in850.0 mb 0.00 in0.0 mm 0.00 in0.0 mm 0.00 in0.0 mm
01:47 AM 74.3°F23.5°C -5537.2°C - 1.0 mph N1.6 kmh N 3.1 mph5.0 kmh 25.10 in850.0 mb 0.00 in0.0 mm 0.00 in0.0 mm 0.00 in0.0 mm
01:52 AM 75.7°F24.3°C -5537.2°C - 1.0 mph N1.6 kmh N 4.0 mph6.4 kmh 25.10 in850.0 mb 0.00 in0.0 mm 0.00 in0.0 mm 0.00 in0.0 mm
01:57 AM 78.3°F25.7°C -5537.2°C - 2.0 mph N3.2 kmh N 5.4 mph8.7 kmh 25.10 in850.0 mb 0.00 in0.0 mm 0.00 in0.0 mm 0.00 in0.0 mm
02:02 AM 78.8°F26.0°C -5537.2°C - 2.0 mph NW3.2 kmh NW 4.0 mph6.4 kmh 25.10 in850.0 mb 0.00 in0.0 mm 0.00 in0.0 mm 0.00 in0.0 mm
02:07 AM 81.5°F27.5°C -5537.2°C - 3.0 mph NW4.8 kmh NW 6.3 mph10.1 kmh 25.10 in850.0 mb 0.00 in0.0 mm 0.00 in0.0 mm 0.00 in0.0 mm
02:12 AM 81.3°F27.4°C -5537.2°C - 2.0 mph NW3.2 kmh NW 4.5 mph7.2 kmh 25.10 in850.0 mb 0.00 in0.0 mm 0.00 in0.0 mm 0.00 in0.0 mm
02:17 AM 79.0°F26.1°C -5537.2°C - 2.0 mph NW3.2 kmh NW 5.4 mph8.7 kmh 25.10 in850.0 mb 0.00 in0.0 mm 0.00 in0.0 mm 0.00 in0.0 mm
02:22 AM 77.9°F25.5°C -5537.2°C - 4.0 mph NW6.4 kmh NW 7.4 mph11.9 kmh 25.10 in850.0 mb 0.00 in0.0 mm 0.00 in0.0 mm 0.00 in0.0 mm
02:27 AM 76.3°F24.6°C -5537.2°C - 5.0 mph NW8.0 kmh NW 7.8 mph12.6 kmh 25.10 in850.0 mb 0.00 in0.0 mm 0.00 in0.0 mm 0.00 in0.0 mm
02:32 AM 75.6°F24.2°C -5537.2°C - 4.0 mph NW6.4 kmh NW 6.7 mph10.8 kmh 25.10 in850.0 mb 0.00 in0.0 mm 0.00 in0.0 mm 0.00 in0.0 mm
02:37 AM 73.8°F23.2°C -5537.2°C - 3.0 mph NE4.8 kmh NE 5.4 mph8.7 kmh 25.10 in850.0 mb 0.00 in0.0 mm 0.00 in0.0 mm 0.00 in0.0 mm
02:42 AM 73.2°F22.9°C -5537.2°C - 1.0 mph E1.6 kmh E 2.7 mph4.3 kmh 25.10 in850.0 mb 0.00 in0.0 mm 0.00 in0.0 mm 0.00 in0.0 mm
02:47 AM 73.4°F23.0°C -5537.2°C - 1.0 mph E1.6 kmh E 3.6 mph5.8 kmh 25.10 in850.0 mb 0.00 in0.0 mm 0.00 in0.0 mm 0.00 in0.0 mm
02:52 AM 73.4°F23.0°C -5537.2°C - 2.0 mph E3.2 kmh E 5.4 mph8.7 kmh 25.10 in850.0 mb 0.00 in0.0 mm 0.00 in0.0 mm 0.00 in0.0 mm
02:57 AM 72.7°F22.6°C -5537.2°C - 4.0 mph NNE6.4 kmh NNE 5.8 mph9.3 kmh 25.10 in850.0 mb 0.00 in0.0 mm 0.00 in0.0 mm 0.00 in0.0 mm
03:02 AM 70.7°F21.5°C -5537.2°C - 3.0 mph N4.8 kmh N 6.3 mph10.1 kmh 25.10 in850.0 mb 0.00 in0.0 mm 0.00 in0.0 mm 0.00 in0.0 mm
03:07 AM 70.5°F21.4°C -5537.2°C - 4.0 mph N6.4 kmh N 6.3 mph10.1 kmh 25.10 in850.0 mb 0.00 in0.0 mm 0.00 in0.0 mm 0.00 in0.0 mm
03:12 AM 72.1°F22.3°C -5537.2°C - 5.0 mph N8.0 kmh N 6.7 mph10.8 kmh 25.10 in850.0 mb 0.00 in0.0 mm 0.00 in0.0 mm 0.00 in0.0 mm
03:17 AM 73.4°F23.0°C -5537.2°C - 5.0 mph N8.0 kmh N 7.4 mph11.9 kmh 25.10 in850.0 mb 0.00 in0.0 mm 0.00 in0.0 mm 0.00 in0.0 mm
03:22 AM 72.7°F22.6°C -5537.2°C - 5.0 mph NNW8.0 kmh NNW 7.4 mph11.9 kmh 25.10 in850.0 mb 0.00 in0.0 mm 0.00 in0.0 mm 0.00 in0.0 mm
03:27 AM 72.5°F22.5°C -5537.2°C - 5.0 mph N8.0 kmh N 7.4 mph11.9 kmh 25.10 in850.0 mb 0.00 in0.0 mm 0.00 in0.0 mm 0.00 in0.0 mm
03:32 AM 72.5°F22.5°C -5537.2°C - 5.0 mph N8.0 kmh N 8.3 mph13.4 kmh 25.10 in850.0 mb 0.00 in0.0 mm 0.00 in0.0 mm 0.00 in0.0 mm
03:37 AM 73.2°F22.9°C -5537.2°C - 5.0 mph NNW8.0 kmh NNW 6.7 mph10.8 kmh 25.10 in850.0 mb 0.00 in0.0 mm 0.00 in0.0 mm 0.00 in0.0 mm
03:42 AM 72.3°F22.4°C -5537.2°C - 5.0 mph NNW8.0 kmh NNW 10.1 mph16.3 kmh 25.10 in850.0 mb 0.00 in0.0 mm 0.00 in0.0 mm 0.00 in0.0 mm
03:47 AM 71.8°F22.1°C -5537.2°C - 6.0 mph N9.7 kmh N 8.3 mph13.4 kmh 25.10 in850.0 mb 0.00 in0.0 mm 0.00 in0.0 mm 0.00 in0.0 mm
03:52 AM 70.3°F21.3°C -5537.2°C - 4.0 mph N6.4 kmh N 5.4 mph8.7 kmh 25.10 in850.0 mb 0.00 in0.0 mm 0.00 in0.0 mm 0.00 in0.0 mm
03:57 AM 69.1°F20.6°C -5537.2°C - 3.0 mph NNE4.8 kmh NNE 5.4 mph8.7 kmh 25.10 in850.0 mb 0.00 in0.0 mm 0.00 in0.0 mm 0.00 in0.0 mm
04:02 AM 68.7°F20.4°C -5537.2°C - 2.0 mph NE3.2 kmh NE 4.9 mph7.9 kmh 25.10 in850.0 mb 0.00 in0.0 mm 0.00 in0.0 mm 0.00 in0.0 mm
04:07 AM 68.9°F20.5°C -5537.2°C - 2.0 mph NE3.2 kmh NE 6.3 mph10.1 kmh 25.10 in850.0 mb 0.00 in0.0 mm 0.00 in0.0 mm 0.00 in0.0 mm
04:12 AM 68.9°F20.5°C -5537.2°C - 2.0 mph NE3.2 kmh NE 4.9 mph7.9 kmh 25.10 in850.0 mb 0.00 in0.0 mm 0.00 in0.0 mm 0.00 in0.0 mm
04:17 AM 68.7°F20.4°C -5537.2°C - 2.0 mph NE3.2 kmh NE 4.9 mph7.9 kmh 25.10 in850.0 mb 0.00 in0.0 mm 0.00 in0.0 mm 0.00 in0.0 mm
04:22 AM 67.8°F19.9°C -5537.2°C - 1.0 mph NE1.6 kmh NE 5.8 mph9.3 kmh 25.10 in850.0 mb 0.00 in0.0 mm 0.00 in0.0 mm 0.00 in0.0 mm
04:27 AM 67.6°F19.8°C -5537.2°C - 2.0 mph NE3.2 kmh NE 4.9 mph7.9 kmh 25.10 in850.0 mb 0.00 in0.0 mm 0.00 in0.0 mm 0.00 in0.0 mm
04:32 AM 67.6°F19.8°C -5537.2°C - 3.0 mph NNE4.8 kmh NNE 6.9 mph11.1 kmh 25.10 in850.0 mb 0.00 in0.0 mm 0.00 in0.0 mm 0.00 in0.0 mm
04:37 AM 67.6°F19.8°C -5537.2°C - 4.0 mph NNE6.4 kmh NNE 6.3 mph10.1 kmh 25.10 in850.0 mb 0.00 in0.0 mm 0.00 in0.0 mm 0.00 in0.0 mm
04:43 AM 68.0°F20.0°C -5537.2°C - 4.0 mph N6.4 kmh N 6.7 mph10.8 kmh 25.10 in850.0 mb 0.00 in0.0 mm 0.00 in0.0 mm 0.00 in0.0 mm
04:48 AM 67.3°F19.6°C -5537.2°C - 5.0 mph NNE8.0 kmh NNE 6.7 mph10.8 kmh 25.10 in850.0 mb 0.00 in0.0 mm 0.00 in0.0 mm 0.00 in0.0 mm
04:53 AM 66.7°F19.3°C -5537.2°C - 4.0 mph N6.4 kmh N 5.4 mph8.7 kmh 25.10 in850.0 mb 0.00 in0.0 mm 0.00 in0.0 mm 0.00 in0.0 mm
04:58 AM 67.8°F19.9°C -5537.2°C - 3.0 mph N4.8 kmh N 6.7 mph10.8 kmh 25.10 in850.0 mb 0.00 in0.0 mm 0.00 in0.0 mm 0.00 in0.0 mm
05:03 AM 67.3°F19.6°C -5537.2°C - 4.0 mph N6.4 kmh N 6.3 mph10.1 kmh 25.10 in850.0 mb 0.00 in0.0 mm 0.00 in0.0 mm 0.00 in0.0 mm
05:08 AM 68.4°F20.2°C -5537.2°C - 3.0 mph N4.8 kmh N 4.9 mph7.9 kmh 25.10 in850.0 mb 0.00 in0.0 mm 0.00 in0.0 mm 0.00 in0.0 mm
05:13 AM 66.9°F19.4°C -5537.2°C - 2.0 mph N3.2 kmh N 4.9 mph7.9 kmh 25.13 in851.0 mb 0.00 in0.0 mm 0.00 in0.0 mm 0.00 in0.0 mm
05:18 AM 66.9°F19.4°C -5537.2°C - 2.0 mph NNE3.2 kmh NNE 4.5 mph7.2 kmh 25.13 in851.0 mb 0.00 in0.0 mm 0.00 in0.0 mm 0.00 in0.0 mm
05:23 AM 68.7°F20.4°C -5537.2°C - 3.0 mph 4.8 kmh 6.9 mph11.1 kmh 25.13 in851.0 mb 0.00 in0.0 mm 0.00 in0.0 mm 0.00 in0.0 mm
05:28 AM 68.2°F20.1°C -5537.2°C - 5.0 mph NNW8.0 kmh NNW 6.9 mph11.1 kmh 25.13 in851.0 mb 0.00 in0.0 mm 0.00 in0.0 mm 0.00 in0.0 mm
05:33 AM 68.4°F20.2°C -5537.2°C - 5.0 mph NNW8.0 kmh NNW 6.9 mph11.1 kmh 25.13 in851.0 mb 0.00 in0.0 mm 0.00 in0.0 mm 0.00 in0.0 mm
05:38 AM 68.4°F20.2°C -5537.2°C - 5.0 mph N8.0 kmh N 9.6 mph15.4 kmh 25.13 in851.0 mb 0.00 in0.0 mm 0.00 in0.0 mm 0.00 in0.0 mm
05:43 AM 67.6°F19.8°C -5537.2°C - 5.0 mph NNE8.0 kmh NNE 8.3 mph13.4 kmh 25.13 in851.0 mb 0.00 in0.0 mm 0.00 in0.0 mm 0.00 in0.0 mm
05:48 AM 66.2°F19.0°C -5537.2°C - 4.0 mph NE6.4 kmh NE 6.3 mph10.1 kmh 25.13 in851.0 mb 0.00 in0.0 mm 0.00 in0.0 mm 0.00 in0.0 mm
05:53 AM 66.0°F18.9°C -5537.2°C - 3.0 mph NE4.8 kmh NE 4.9 mph7.9 kmh 25.13 in851.0 mb 0.00 in0.0 mm 0.00 in0.0 mm 0.00 in0.0 mm
05:58 AM 66.0°F18.9°C -5537.2°C - 2.0 mph NE3.2 kmh NE 5.4 mph8.7 kmh 25.13 in851.0 mb 0.00 in0.0 mm 0.00 in0.0 mm 0.00 in0.0 mm
06:03 AM 67.3°F19.6°C -5537.2°C - 3.0 mph NE4.8 kmh NE 6.9 mph11.1 kmh 25.13 in851.0 mb 0.00 in0.0 mm 0.00 in0.0 mm 0.00 in0.0 mm
06:08 AM 67.5°F19.7°C -5537.2°C - 4.0 mph NNE6.4 kmh NNE 5.8 mph9.3 kmh 25.13 in851.0 mb 0.00 in0.0 mm 0.00 in0.0 mm 0.00 in0.0 mm
06:13 AM 69.1°F20.6°C -5537.2°C - 4.0 mph NNE6.4 kmh NNE 6.9 mph11.1 kmh 25.13 in851.0 mb 0.00 in0.0 mm 0.00 in0.0 mm 0.00 in0.0 mm
06:18 AM 68.9°F20.5°C -5537.2°C - 5.0 mph NNE8.0 kmh NNE 7.8 mph12.6 kmh 25.13 in851.0 mb 0.00 in0.0 mm 0.00 in0.0 mm 0.00 in0.0 mm
06:23 AM 67.8°F19.9°C -5537.2°C - 4.0 mph NNE6.4 kmh NNE 6.9 mph11.1 kmh 25.13 in851.0 mb 0.00 in0.0 mm 0.00 in0.0 mm 0.00 in0.0 mm
06:28 AM 67.5°F19.7°C -5537.2°C - 4.0 mph NE6.4 kmh NE 6.3 mph10.1 kmh 25.16 in852.0 mb 0.00 in0.0 mm 0.00 in0.0 mm 0.00 in0.0 mm
06:33 AM 68.0°F20.0°C -5537.2°C - 4.0 mph NE6.4 kmh NE 6.9 mph11.1 kmh 25.16 in852.0 mb 0.00 in0.0 mm 0.00 in0.0 mm 0.00 in0.0 mm
06:38 AM 69.6°F20.9°C -5537.2°C - 4.0 mph NNE6.4 kmh NNE 7.4 mph11.9 kmh 25.16 in852.0 mb 0.00 in0.0 mm 0.00 in0.0 mm 0.00 in0.0 mm
06:43 AM 70.3°F21.3°C -5537.2°C - 3.0 mph NE4.8 kmh NE 5.8 mph9.3 kmh 25.16 in852.0 mb 0.00 in0.0 mm 0.00 in0.0 mm 0.00 in0.0 mm
06:48 AM 70.9°F21.6°C -5537.2°C - 3.0 mph NE4.8 kmh NE 5.8 mph9.3 kmh 25.16 in852.0 mb 0.00 in0.0 mm 0.00 in0.0 mm 0.00 in0.0 mm
06:53 AM 71.4°F21.9°C -5537.2°C - 4.0 mph NNE6.4 kmh NNE 7.8 mph12.6 kmh 25.16 in852.0 mb 0.00 in0.0 mm 0.00 in0.0 mm 0.00 in0.0 mm
06:58 AM 71.6°F22.0°C -5537.2°C - 4.0 mph NNE6.4 kmh NNE 8.3 mph13.4 kmh 25.16 in852.0 mb 0.00 in0.0 mm 0.00 in0.0 mm 0.00 in0.0 mm
07:03 AM 72.7°F22.6°C -5537.2°C - 4.0 mph NNE6.4 kmh NNE 6.3 mph10.1 kmh 25.16 in852.0 mb 0.00 in0.0 mm 0.00 in0.0 mm 0.00 in0.0 mm
07:08 AM 72.5°F22.5°C -5537.2°C - 4.0 mph 6.4 kmh 5.8 mph9.3 kmh 25.16 in852.0 mb 0.00 in0.0 mm 0.00 in0.0 mm 0.00 in0.0 mm
07:13 AM 72.5°F22.5°C -5537.2°C - 4.0 mph NNW6.4 kmh NNW 5.4 mph8.7 kmh 25.16 in852.0 mb 0.00 in0.0 mm 0.00 in0.0 mm 0.00 in0.0 mm
07:18 AM 73.6°F23.1°C -5537.2°C - 4.0 mph N6.4 kmh N 6.9 mph11.1 kmh 25.16 in852.0 mb 0.00 in0.0 mm 0.00 in0.0 mm 0.00 in0.0 mm
07:23 AM 74.7°F23.7°C -5537.2°C - 4.0 mph N6.4 kmh N 7.4 mph11.9 kmh 25.16 in852.0 mb 0.00 in0.0 mm 0.00 in0.0 mm 0.00 in0.0 mm
07:28 AM 74.7°F23.7°C -5537.2°C - 4.0 mph N6.4 kmh N 8.7 mph14.0 kmh 25.16 in852.0 mb 0.00 in0.0 mm 0.00 in0.0 mm 0.00 in0.0 mm
07:33 AM 74.3°F23.5°C -5537.2°C - 5.0 mph NNW8.0 kmh NNW 8.3 mph13.4 kmh 25.16 in852.0 mb 0.00 in0.0 mm 0.00 in0.0 mm 0.00 in0.0 mm
07:38 AM 74.1°F23.4°C -5537.2°C - 5.0 mph NNW8.0 kmh NNW 8.7 mph14.0 kmh 25.16 in852.0 mb 0.00 in0.0 mm 0.00 in0.0 mm 0.00 in0.0 mm
07:43 AM 74.3°F23.5°C -5537.2°C - 6.0 mph NNW9.7 kmh NNW 9.2 mph14.8 kmh 25.16 in852.0 mb 0.00 in0.0 mm 0.00 in0.0 mm 0.00 in0.0 mm
07:48 AM 74.3°F23.5°C -5537.2°C - 5.0 mph NNW8.0 kmh NNW 6.9 mph11.1 kmh 25.16 in852.0 mb 0.00 in0.0 mm 0.00 in0.0 mm 0.00 in0.0 mm
07:53 AM 74.3°F23.5°C -5537.2°C - 5.0 mph NNW8.0 kmh NNW 8.7 mph14.0 kmh 25.16 in852.0 mb 0.00 in0.0 mm 0.00 in0.0 mm 0.00 in0.0 mm
07:58 AM 74.5°F23.6°C -5537.2°C - 5.0 mph NNW8.0 kmh NNW 7.4 mph11.9 kmh 25.16 in852.0 mb 0.00 in0.0 mm 0.00 in0.0 mm 0.00 in0.0 mm
08:03 AM 74.1°F23.4°C -5537.2°C - 4.0 mph NNW6.4 kmh NNW 6.7 mph10.8 kmh 25.16 in852.0 mb 0.00 in0.0 mm 0.00 in0.0 mm 0.00 in0.0 mm
08:08 AM 74.5°F23.6°C -5537.2°C - 4.0 mph NW6.4 kmh NW 7.4 mph11.9 kmh 25.16 in852.0 mb 0.00 in0.0 mm 0.00 in0.0 mm 0.00 in0.0 mm
08:13 AM 74.5°F23.6°C -5537.2°C - 5.0 mph NW8.0 kmh NW 7.4 mph11.9 kmh 25.16 in852.0 mb 0.00 in0.0 mm 0.00 in0.0 mm 0.00 in0.0 mm
08:18 AM 74.5°F23.6°C -5537.2°C - 6.0 mph NW9.7 kmh NW 8.7 mph14.0 kmh 25.16 in852.0 mb 0.00 in0.0 mm 0.00 in0.0 mm 0.00 in0.0 mm
08:23 AM 74.3°F23.5°C -5537.2°C - 6.0 mph NW9.7 kmh NW 9.6 mph15.4 kmh 25.16 in852.0 mb 0.00 in0.0 mm 0.00 in0.0 mm 0.00 in0.0 mm
08:28 AM 74.5°F23.6°C -5537.2°C - 6.0 mph NW9.7 kmh NW 10.5 mph16.9 kmh 25.16 in852.0 mb 0.00 in0.0 mm 0.00 in0.0 mm 0.00 in0.0 mm
08:33 AM 74.7°F23.7°C -5537.2°C - 6.0 mph NW9.7 kmh NW 11.2 mph18.0 kmh 25.16 in852.0 mb 0.00 in0.0 mm 0.00 in0.0 mm 0.00 in0.0 mm
08:38 AM 74.5°F23.6°C -5537.2°C - 7.0 mph NNW11.3 kmh NNW 14.3 mph23.0 kmh 25.16 in852.0 mb 0.00 in0.0 mm 0.00 in0.0 mm 0.00 in0.0 mm
08:43 AM 74.5°F23.6°C -5537.2°C - 8.0 mph NNW12.9 kmh NNW 13.4 mph21.6 kmh 25.16 in852.0 mb 0.00 in0.0 mm 0.00 in0.0 mm 0.00 in0.0 mm
08:48 AM 75.4°F24.1°C -5537.2°C - 10.0 mph NNW16.1 kmh NNW 14.8 mph23.8 kmh 25.16 in852.0 mb 0.00 in0.0 mm 0.00 in0.0 mm 0.00 in0.0 mm
08:53 AM 77.2°F25.1°C -5537.2°C - 9.0 mph N14.5 kmh N 12.1 mph19.5 kmh 25.16 in852.0 mb 0.00 in0.0 mm 0.00 in0.0 mm 0.00 in0.0 mm
08:58 AM 78.6°F25.9°C -5537.2°C - 8.0 mph 12.9 kmh 11.2 mph18.0 kmh 25.16 in852.0 mb 0.00 in0.0 mm 0.00 in0.0 mm 0.00 in0.0 mm
09:03 AM 78.8°F26.0°C -5537.2°C - 7.0 mph N11.3 kmh N 10.1 mph16.3 kmh 25.16 in852.0 mb 0.00 in0.0 mm 0.00 in0.0 mm 0.00 in0.0 mm
09:08 AM 79.5°F26.4°C -5537.2°C - 7.0 mph N11.3 kmh N 12.5 mph20.1 kmh 25.16 in852.0 mb 0.00 in0.0 mm 0.00 in0.0 mm 0.00 in0.0 mm
09:13 AM 80.1°F26.7°C -5537.2°C - 7.0 mph N11.3 kmh N 10.1 mph16.3 kmh 25.16 in852.0 mb 0.00 in0.0 mm 0.00 in0.0 mm 0.00 in0.0 mm
09:18 AM 79.7°F26.5°C -5537.2°C - 7.0 mph N11.3 kmh N 12.1 mph19.5 kmh 25.16 in852.0 mb 0.00 in0.0 mm 0.00 in0.0 mm 0.00 in0.0 mm
09:23 AM 80.4°F26.9°C -5537.2°C - 8.0 mph N12.9 kmh N 12.1 mph19.5 kmh 25.16 in852.0 mb 0.00 in0.0 mm 0.00 in0.0 mm 0.00 in0.0 mm
09:28 AM 80.2°F26.8°C -5537.2°C - 8.0 mph N12.9 kmh N 12.5 mph20.1 kmh 25.16 in852.0 mb 0.00 in0.0 mm 0.00 in0.0 mm 0.00 in0.0 mm
09:33 AM 80.6°F27.0°C -5537.2°C - 9.0 mph N14.5 kmh N 14.3 mph23.0 kmh 25.16 in852.0 mb 0.00 in0.0 mm 0.00 in0.0 mm 0.00 in0.0 mm
09:38 AM 81.3°F27.4°C -5537.2°C - 8.0 mph NNW12.9 kmh NNW 12.1 mph19.5 kmh 25.16 in852.0 mb 0.00 in0.0 mm 0.00 in0.0 mm 0.00 in0.0 mm
09:43 AM 82.0°F27.8°C -5537.2°C - 7.0 mph NNW11.3 kmh NNW 12.5 mph20.1 kmh 25.16 in852.0 mb 0.00 in0.0 mm 0.00 in0.0 mm 0.00 in0.0 mm
09:48 AM 81.9°F27.7°C -5537.2°C - 8.0 mph N12.9 kmh N 15.2 mph24.5 kmh 25.16 in852.0 mb 0.00 in0.0 mm 0.00 in0.0 mm 0.00 in0.0 mm
09:53 AM 82.0°F27.8°C -5537.2°C - 8.0 mph N12.9 kmh N 11.6 mph18.7 kmh 25.16 in852.0 mb 0.00 in0.0 mm 0.00 in0.0 mm 0.00 in0.0 mm
09:58 AM 82.2°F27.9°C -5537.2°C - 7.0 mph NNW11.3 kmh NNW 11.2 mph18.0 kmh 25.16 in852.0 mb 0.00 in0.0 mm 0.00 in0.0 mm 0.00 in0.0 mm
10:03 AM 82.9°F28.3°C -5537.2°C - 7.0 mph NNW11.3 kmh NNW 13.9 mph22.4 kmh 25.16 in852.0 mb 0.00 in0.0 mm 0.00 in0.0 mm 0.00 in0.0 mm
10:08 AM 82.8°F28.2°C -5537.2°C - 8.0 mph NNW12.9 kmh NNW 12.5 mph20.1 kmh 25.16 in852.0 mb 0.00 in0.0 mm 0.00 in0.0 mm 0.00 in0.0 mm
10:13 AM 83.8°F28.8°C -5537.2°C - 8.0 mph NNW12.9 kmh NNW 13.9 mph22.4 kmh 25.16 in852.0 mb 0.00 in0.0 mm 0.00 in0.0 mm 0.00 in0.0 mm
10:18 AM 84.0°F28.9°C -5537.2°C - 8.0 mph NNW12.9 kmh NNW 11.0 mph17.7 kmh 25.16 in852.0 mb 0.00 in0.0 mm 0.00 in0.0 mm 0.00 in0.0 mm
10:23 AM 84.4°F29.1°C -5537.2°C - 7.0 mph N11.3 kmh N 13.4 mph21.6 kmh 25.16 in852.0 mb 0.00 in0.0 mm 0.00 in0.0 mm 0.00 in0.0 mm
10:28 AM 85.3°F29.6°C -5537.2°C - 6.0 mph N9.7 kmh N 10.1 mph16.3 kmh 25.16 in852.0 mb 0.00 in0.0 mm 0.00 in0.0 mm 0.00 in0.0 mm
10:33 AM 85.6°F29.8°C -5537.2°C - 5.0 mph NNW8.0 kmh NNW 7.8 mph12.6 kmh 25.16 in852.0 mb 0.00 in0.0 mm 0.00 in0.0 mm 0.00 in0.0 mm
10:38 AM 86.5°F30.3°C -5537.2°C - 4.0 mph NW6.4 kmh NW 7.8 mph12.6 kmh 25.16 in852.0 mb 0.00 in0.0 mm 0.00 in0.0 mm 0.00 in0.0 mm
10:43 AM 85.8°F29.9°C -5537.2°C - 5.0 mph NW8.0 kmh NW 8.3 mph13.4 kmh 25.16 in852.0 mb 0.00 in0.0 mm 0.00 in0.0 mm 0.00 in0.0 mm
10:48 AM 85.5°F29.7°C -5537.2°C - 5.0 mph NW8.0 kmh NW 10.1 mph16.3 kmh 25.16 in852.0 mb 0.00 in0.0 mm 0.00 in0.0 mm 0.00 in0.0 mm
10:53 AM 86.4°F30.2°C -5537.2°C - 5.0 mph NW8.0 kmh NW 9.2 mph14.8 kmh 25.16 in852.0 mb 0.00 in0.0 mm 0.00 in0.0 mm 0.00 in0.0 mm
10:58 AM 87.1°F30.6°C -5537.2°C - 5.0 mph NW8.0 kmh NW 10.1 mph16.3 kmh 25.16 in852.0 mb 0.00 in0.0 mm 0.00 in0.0 mm 0.00 in0.0 mm
11:03 AM 87.1°F30.6°C -5537.2°C - 5.0 mph NW8.0 kmh NW 11.0 mph17.7 kmh 25.16 in852.0 mb 0.00 in0.0 mm 0.00 in0.0 mm 0.00 in0.0 mm
11:08 AM 87.3°F30.7°C -5537.2°C - 5.0 mph NW8.0 kmh NW 11.0 mph17.7 kmh 25.16 in852.0 mb 0.00 in0.0 mm 0.00 in0.0 mm 0.00 in0.0 mm
11:13 AM 88.2°F31.2°C -5537.2°C - 5.0 mph W8.0 kmh W 10.1 mph16.3 kmh 25.16 in852.0 mb 0.00 in0.0 mm 0.00 in0.0 mm 0.00 in0.0 mm
11:18 AM 87.3°F30.7°C -5537.2°C - 5.0 mph WNW8.0 kmh WNW 10.5 mph16.9 kmh 25.16 in852.0 mb 0.00 in0.0 mm 0.00 in0.0 mm 0.00 in0.0 mm
11:23 AM 88.3°F31.3°C -5537.2°C - 5.0 mph WNW8.0 kmh WNW 8.7 mph14.0 kmh 25.16 in852.0 mb 0.00 in0.0 mm 0.00 in0.0 mm 0.00 in0.0 mm
11:28 AM 88.7°F31.5°C -5537.2°C - 5.0 mph W8.0 kmh W 9.6 mph15.4 kmh 25.16 in852.0 mb 0.00 in0.0 mm 0.00 in0.0 mm 0.00 in0.0 mm
11:33 AM 89.4°F31.9°C -5537.2°C - 5.0 mph W8.0 kmh W 9.2 mph14.8 kmh 25.16 in852.0 mb 0.00 in0.0 mm 0.00 in0.0 mm 0.00 in0.0 mm
11:38 AM 90.7°F32.6°C -5537.2°C - 4.0 mph NW6.4 kmh NW 8.3 mph13.4 kmh 25.16 in852.0 mb 0.00 in0.0 mm 0.00 in0.0 mm 0.00 in0.0 mm
11:44 AM 89.6°F32.0°C -5537.2°C - 4.0 mph WNW6.4 kmh WNW 8.7 mph14.0 kmh 25.13 in851.0 mb 0.00 in0.0 mm 0.00 in0.0 mm 0.00 in0.0 mm
11:49 AM 90.0°F32.2°C -5537.2°C - 4.0 mph NW6.4 kmh NW 6.3 mph10.1 kmh 25.13 in851.0 mb 0.00 in0.0 mm 0.00 in0.0 mm 0.00 in0.0 mm
11:54 AM 90.7°F32.6°C -5537.2°C - 3.0 mph NW4.8 kmh NW 7.4 mph11.9 kmh 25.13 in851.0 mb 0.00 in0.0 mm 0.00 in0.0 mm 0.00 in0.0 mm
11:59 AM 90.1°F32.3°C -5537.2°C - 5.0 mph WNW8.0 kmh WNW 7.8 mph12.6 kmh 25.13 in851.0 mb 0.00 in0.0 mm 0.00 in0.0 mm 0.00 in0.0 mm
12:04 PM 91.4°F33.0°C -5537.2°C - 5.0 mph NW8.0 kmh NW 6.3 mph10.1 kmh 25.13 in851.0 mb 0.00 in0.0 mm 0.00 in0.0 mm 0.00 in0.0 mm
12:09 PM 92.1°F33.4°C -5537.2°C - 4.0 mph WNW6.4 kmh WNW 6.3 mph10.1 kmh 25.13 in851.0 mb 0.00 in0.0 mm 0.00 in0.0 mm 0.00 in0.0 mm
12:14 PM 91.9°F33.3°C -5537.2°C - 4.0 mph W6.4 kmh W 9.6 mph15.4 kmh 25.13 in851.0 mb 0.00 in0.0 mm 0.00 in0.0 mm 0.00 in0.0 mm
12:19 PM 92.5°F33.6°C -5537.2°C - 5.0 mph WNW8.0 kmh WNW 7.8 mph12.6 kmh 25.13 in851.0 mb 0.00 in0.0 mm 0.00 in0.0 mm 0.00 in0.0 mm
12:24 PM 92.8°F33.8°C -5537.2°C - 4.0 mph WNW6.4 kmh WNW 8.7 mph14.0 kmh 25.13 in851.0 mb 0.00 in0.0 mm 0.00 in0.0 mm 0.00 in0.0 mm
12:29 PM 93.4°F34.1°C -5537.2°C - 4.0 mph W6.4 kmh W 9.2 mph14.8 kmh 25.13 in851.0 mb 0.00 in0.0 mm 0.00 in0.0 mm 0.00 in0.0 mm
12:34 PM 93.4°F34.1°C -5537.2°C - 4.0 mph W6.4 kmh W 8.3 mph13.4 kmh 25.13 in851.0 mb 0.00 in0.0 mm 0.00 in0.0 mm 0.00 in0.0 mm
12:39 PM 95.0°F35.0°C -5537.2°C - 3.0 mph WNW4.8 kmh WNW 7.8 mph12.6 kmh 25.13 in851.0 mb 0.00 in0.0 mm 0.00 in0.0 mm 0.00 in0.0 mm
12:44 PM 94.1°F34.5°C -5537.2°C - 3.0 mph WNW4.8 kmh WNW 8.7 mph14.0 kmh 25.13 in851.0 mb 0.00 in0.0 mm 0.00 in0.0 mm 0.00 in0.0 mm
12:49 PM 94.6°F34.8°C -5537.2°C - 5.0 mph W8.0 kmh W 10.5 mph16.9 kmh 25.13 in851.0 mb 0.00 in0.0 mm 0.00 in0.0 mm 0.00 in0.0 mm
12:54 PM 94.3°F34.6°C -5537.2°C - 4.0 mph WNW6.4 kmh WNW 8.7 mph14.0 kmh 25.13 in851.0 mb 0.00 in0.0 mm 0.00 in0.0 mm 0.00 in0.0 mm
12:59 PM 95.7°F35.4°C -5537.2°C - 4.0 mph NW6.4 kmh NW 6.7 mph10.8 kmh 25.10 in850.0 mb 0.00 in0.0 mm 0.00 in0.0 mm 0.00 in0.0 mm
01:04 PM 94.3°F34.6°C -5537.2°C - 5.0 mph NW8.0 kmh NW 8.7 mph14.0 kmh 25.10 in850.0 mb 0.00 in0.0 mm 0.00 in0.0 mm 0.00 in0.0 mm
01:09 PM 96.4°F35.8°C -5537.2°C - 4.0 mph NW6.4 kmh NW 7.8 mph12.6 kmh 25.10 in850.0 mb 0.00 in0.0 mm 0.00 in0.0 mm 0.00 in0.0 mm
01:14 PM 96.1°F35.6°C -5537.2°C - 4.0 mph NNW6.4 kmh NNW 8.7 mph14.0 kmh 25.10 in850.0 mb 0.00 in0.0 mm 0.00 in0.0 mm 0.00 in0.0 mm
01:19 PM 96.1°F35.6°C -5537.2°C - 4.0 mph W6.4 kmh W 6.7 mph10.8 kmh 25.10 in850.0 mb 0.00 in0.0 mm 0.00 in0.0 mm 0.00 in0.0 mm
01:24 PM 96.1°F35.6°C -5537.2°C - 4.0 mph WSW6.4 kmh WSW 7.8 mph12.6 kmh 25.10 in850.0 mb 0.00 in0.0 mm 0.00 in0.0 mm 0.00 in0.0 mm
01:29 PM 96.4°F35.8°C -5537.2°C - 5.0 mph WSW8.0 kmh WSW 10.5 mph16.9 kmh 25.10 in850.0 mb 0.00 in0.0 mm 0.00 in0.0 mm 0.00 in0.0 mm
01:34 PM 97.7°F36.5°C -5537.2°C - 4.0 mph SW6.4 kmh SW 6.9 mph11.1 kmh 25.10 in850.0 mb 0.00 in0.0 mm 0.00 in0.0 mm 0.00 in0.0 mm
01:39 PM 97.5°F36.4°C -5537.2°C - 4.0 mph WSW6.4 kmh WSW 10.5 mph16.9 kmh 25.10 in850.0 mb 0.00 in0.0 mm 0.00 in0.0 mm 0.00 in0.0 mm
01:44 PM 97.3°F36.3°C -5537.2°C - 6.0 mph WSW9.7 kmh WSW 10.5 mph16.9 kmh 25.10 in850.0 mb 0.00 in0.0 mm 0.00 in0.0 mm 0.00 in0.0 mm
01:49 PM 97.5°F36.4°C -5537.2°C - 6.0 mph WSW9.7 kmh WSW 10.1 mph16.3 kmh 25.10 in850.0 mb 0.00 in0.0 mm 0.00 in0.0 mm 0.00 in0.0 mm
01:54 PM 98.4°F36.9°C -5537.2°C - 6.0 mph WSW9.7 kmh WSW 9.2 mph14.8 kmh 25.10 in850.0 mb 0.00 in0.0 mm 0.00 in0.0 mm 0.00 in0.0 mm
01:59 PM 98.8°F37.1°C -5537.2°C - 6.0 mph WSW9.7 kmh WSW 11.0 mph17.7 kmh 25.10 in850.0 mb 0.00 in0.0 mm 0.00 in0.0 mm 0.00 in0.0 mm
02:04 PM 98.2°F36.8°C -5537.2°C - 7.0 mph WSW11.3 kmh WSW 12.1 mph19.5 kmh 25.10 in850.0 mb 0.00 in0.0 mm 0.00 in0.0 mm 0.00 in0.0 mm
02:09 PM 97.0°F36.1°C -5537.2°C - 7.0 mph WSW11.3 kmh WSW 12.1 mph19.5 kmh 25.10 in850.0 mb 0.00 in0.0 mm 0.00 in0.0 mm 0.00 in0.0 mm
02:14 PM 98.2°F36.8°C -5537.2°C - 7.0 mph WSW11.3 kmh WSW 11.2 mph18.0 kmh 25.10 in850.0 mb 0.00 in0.0 mm 0.00 in0.0 mm 0.00 in0.0 mm
02:19 PM 99.1°F37.3°C -5537.2°C - 7.0 mph WSW11.3 kmh WSW 12.1 mph19.5 kmh 25.10 in850.0 mb 0.00 in0.0 mm 0.00 in0.0 mm 0.00 in0.0 mm
02:24 PM 99.3°F37.4°C -5537.2°C - 7.0 mph SW11.3 kmh SW 12.1 mph19.5 kmh 25.10 in850.0 mb 0.00 in0.0 mm 0.00 in0.0 mm 0.00 in0.0 mm
02:29 PM 99.0°F37.2°C -5537.2°C - 8.0 mph SW12.9 kmh SW 12.5 mph20.1 kmh 25.07 in849.0 mb 0.00 in0.0 mm 0.00 in0.0 mm 0.00 in0.0 mm
02:34 PM 99.7°F37.6°C -5537.2°C - 7.0 mph SW11.3 kmh SW 11.0 mph17.7 kmh 25.07 in849.0 mb 0.00 in0.0 mm 0.00 in0.0 mm 0.00 in0.0 mm
02:39 PM 99.5°F37.5°C -5537.2°C - 7.0 mph S11.3 kmh S 13.0 mph20.9 kmh 25.07 in849.0 mb 0.00 in0.0 mm 0.00 in0.0 mm 0.00 in0.0 mm
02:44 PM 98.4°F36.9°C -5537.2°C - 7.0 mph S11.3 kmh S 13.4 mph21.6 kmh 25.07 in849.0 mb 0.00 in0.0 mm 0.00 in0.0 mm 0.00 in0.0 mm
02:49 PM 97.9°F36.6°C -5537.2°C - 8.0 mph SW12.9 kmh SW 10.1 mph16.3 kmh 25.07 in849.0 mb 0.00 in0.0 mm 0.00 in0.0 mm 0.00 in0.0 mm
02:54 PM 99.3°F37.4°C -5537.2°C - 8.0 mph WSW12.9 kmh WSW 14.8 mph23.8 kmh 25.07 in849.0 mb 0.00 in0.0 mm 0.00 in0.0 mm 0.00 in0.0 mm
02:59 PM 98.2°F36.8°C -5537.2°C - 8.0 mph SW12.9 kmh SW 12.5 mph20.1 kmh 25.07 in849.0 mb 0.00 in0.0 mm 0.00 in0.0 mm 0.00 in0.0 mm
03:04 PM 97.5°F36.4°C -5537.2°C - 8.0 mph SW12.9 kmh SW 13.0 mph20.9 kmh 25.07 in849.0 mb 0.00 in0.0 mm 0.00 in0.0 mm 0.00 in0.0 mm
03:09 PM 97.3°F36.3°C -5537.2°C - 8.0 mph SW12.9 kmh SW 11.2 mph18.0 kmh 25.07 in849.0 mb 0.00 in0.0 mm 0.00 in0.0 mm 0.00 in0.0 mm
03:14 PM 97.3°F36.3°C -5537.2°C - 7.0 mph SSW11.3 kmh SSW 11.6 mph18.7 kmh 25.07 in849.0 mb 0.00 in0.0 mm 0.00 in0.0 mm 0.00 in0.0 mm
03:19 PM 97.7°F36.5°C -5537.2°C - 7.0 mph SW11.3 kmh SW 13.4 mph21.6 kmh 25.07 in849.0 mb 0.00 in0.0 mm 0.00 in0.0 mm 0.00 in0.0 mm
03:24 PM 98.2°F36.8°C -5537.2°C - 9.0 mph SW14.5 kmh SW 13.0 mph20.9 kmh 25.07 in849.0 mb 0.00 in0.0 mm 0.00 in0.0 mm 0.00 in0.0 mm
03:29 PM 99.0°F37.2°C -5537.2°C - 8.0 mph SW12.9 kmh SW 12.1 mph19.5 kmh 25.04 in848.0 mb 0.00 in0.0 mm 0.00 in0.0 mm 0.00 in0.0 mm
03:34 PM 98.2°F36.8°C -5537.2°C - 9.0 mph SW14.5 kmh SW 17.7 mph28.5 kmh 25.04 in848.0 mb 0.00 in0.0 mm 0.00 in0.0 mm 0.00 in0.0 mm
03:39 PM 99.9°F37.7°C -5537.2°C - 10.0 mph SW16.1 kmh SW 14.3 mph23.0 kmh 25.04 in848.0 mb 0.00 in0.0 mm 0.00 in0.0 mm 0.00 in0.0 mm
03:44 PM 101.3°F38.5°C -5537.2°C - 9.0 mph SSW14.5 kmh SSW 13.9 mph22.4 kmh 25.04 in848.0 mb 0.00 in0.0 mm 0.00 in0.0 mm 0.00 in0.0 mm
03:49 PM 101.5°F38.6°C -5537.2°C - 9.0 mph SW14.5 kmh SW 13.9 mph22.4 kmh 25.04 in848.0 mb 0.00 in0.0 mm 0.00 in0.0 mm 0.00 in0.0 mm
03:54 PM -5537.2°C -5537.2°C - 9.0 mph SW14.5 kmh SW 16.8 mph27.0 kmh 25.04 in848.0 mb 0.00 in0.0 mm 0.00 in0.0 mm 0.00 in0.0 mm
03:59 PM 100.0°F37.8°C -5537.2°C - 9.0 mph SW14.5 kmh SW 11.6 mph18.7 kmh 25.04 in848.0 mb 0.00 in0.0 mm 0.00 in0.0 mm 0.00 in0.0 mm
04:04 PM 100.9°F38.3°C -5537.2°C - 7.0 mph WSW11.3 kmh WSW 11.6 mph18.7 kmh 25.04 in848.0 mb 0.00 in0.0 mm 0.00 in0.0 mm 0.00 in0.0 mm
04:09 PM 99.5°F37.5°C -5537.2°C - 7.0 mph SW11.3 kmh SW 13.9 mph22.4 kmh 25.04 in848.0 mb 0.00 in0.0 mm 0.00 in0.0 mm 0.00 in0.0 mm
04:14 PM 99.7°F37.6°C -5537.2°C - 8.0 mph SW12.9 kmh SW 12.1 mph19.5 kmh 25.04 in848.0 mb 0.00 in0.0 mm 0.00 in0.0 mm 0.00 in0.0 mm
04:19 PM -5537.2°C -5537.2°C - 8.0 mph SW12.9 kmh SW 13.9 mph22.4 kmh 25.04 in848.0 mb 0.00 in0.0 mm 0.00 in0.0 mm 0.00 in0.0 mm
04:24 PM 99.3°F37.4°C -5537.2°C - 8.0 mph SW12.9 kmh SW 13.4 mph21.6 kmh 25.04 in848.0 mb 0.00 in0.0 mm 0.00 in0.0 mm 0.00 in0.0 mm
04:30 PM 99.0°F37.2°C -5537.2°C - 8.0 mph SW12.9 kmh SW 12.5 mph20.1 kmh 25.04 in848.0 mb 0.00 in0.0 mm 0.00 in0.0 mm 0.00 in0.0 mm
04:35 PM 99.3°F37.4°C -5537.2°C - 7.0 mph SW11.3 kmh SW 12.1 mph19.5 kmh 25.04 in848.0 mb 0.00 in0.0 mm 0.00 in0.0 mm 0.00 in0.0 mm
04:40 PM 99.1°F37.3°C -5537.2°C - 7.0 mph SW11.3 kmh SW 15.2 mph24.5 kmh 25.04 in848.0 mb 0.00 in0.0 mm 0.00 in0.0 mm 0.00 in0.0 mm
04:45 PM -5537.2°C -5537.2°C - 8.0 mph SW12.9 kmh SW 13.0 mph20.9 kmh 25.04 in848.0 mb 0.00 in0.0 mm 0.00 in0.0 mm 0.00 in0.0 mm
04:50 PM 100.0°F37.8°C -5537.2°C - 7.0 mph WSW11.3 kmh WSW 11.0 mph17.7 kmh 25.04 in848.0 mb 0.00 in0.0 mm 0.00 in0.0 mm 0.00 in0.0 mm
04:55 PM 101.5°F38.6°C -5537.2°C - 5.0 mph WSW8.0 kmh WSW 9.6 mph15.4 kmh 25.04 in848.0 mb 0.00 in0.0 mm 0.00 in0.0 mm 0.00 in0.0 mm
05:00 PM 100.6°F38.1°C -5537.2°C - 5.0 mph WSW8.0 kmh WSW 13.4 mph21.6 kmh 25.04 in848.0 mb 0.00 in0.0 mm 0.00 in0.0 mm 0.00 in0.0 mm
05:05 PM 99.7°F37.6°C -5537.2°C - 7.0 mph WSW11.3 kmh WSW 14.8 mph23.8 kmh 25.04 in848.0 mb 0.00 in0.0 mm 0.00 in0.0 mm 0.00 in0.0 mm
05:10 PM 99.3°F37.4°C -5537.2°C - 9.0 mph SW14.5 kmh SW 15.2 mph24.5 kmh 25.04 in848.0 mb 0.00 in0.0 mm 0.00 in0.0 mm 0.00 in0.0 mm
05:15 PM 98.4°F36.9°C -5537.2°C - 9.0 mph SW14.5 kmh SW 14.3 mph23.0 kmh 25.04 in848.0 mb 0.00 in0.0 mm 0.00 in0.0 mm 0.00 in0.0 mm
05:20 PM 98.4°F36.9°C -5537.2°C - 10.0 mph S16.1 kmh S 15.4 mph24.8 kmh 25.04 in848.0 mb 0.00 in0.0 mm 0.00 in0.0 mm 0.00 in0.0 mm
05:25 PM 97.3°F36.3°C -5537.2°C - 9.0 mph S14.5 kmh S 11.2 mph18.0 kmh 25.04 in848.0 mb 0.00 in0.0 mm 0.00 in0.0 mm 0.00 in0.0 mm
05:30 PM 97.5°F36.4°C -5537.2°C - 9.0 mph S14.5 kmh S 22.8 mph36.7 kmh 25.04 in848.0 mb 0.00 in0.0 mm 0.00 in0.0 mm 0.00 in0.0 mm
05:35 PM 97.0°F36.1°C -5537.2°C - 13.0 mph SSW20.9 kmh SSW 21.5 mph34.6 kmh 25.04 in848.0 mb 0.00 in0.0 mm 0.00 in0.0 mm 0.00 in0.0 mm
05:40 PM 95.9°F35.5°C -5537.2°C - 16.0 mph SSW25.7 kmh SSW 22.4 mph36.0 kmh 25.04 in848.0 mb 0.00 in0.0 mm 0.00 in0.0 mm 0.00 in0.0 mm
05:45 PM 95.9°F35.5°C -5537.2°C - 14.0 mph SSW22.5 kmh SSW 21.9 mph35.2 kmh 25.04 in848.0 mb 0.00 in0.0 mm 0.00 in0.0 mm 0.00 in0.0 mm
05:50 PM 96.3°F35.7°C -5537.2°C - 14.0 mph SW22.5 kmh SW 21.9 mph35.2 kmh 25.04 in848.0 mb 0.00 in0.0 mm 0.00 in0.0 mm 0.00 in0.0 mm
05:55 PM 97.5°F36.4°C -5537.2°C - 13.0 mph SW20.9 kmh SW 18.6 mph29.9 kmh 25.04 in848.0 mb 0.00 in0.0 mm 0.00 in0.0 mm 0.00 in0.0 mm
06:00 PM 98.2°F36.8°C -5537.2°C - 11.0 mph SW17.7 kmh SW 14.3 mph23.0 kmh 25.04 in848.0 mb 0.00 in0.0 mm 0.00 in0.0 mm 0.00 in0.0 mm
06:05 PM 98.8°F37.1°C -5537.2°C - 10.0 mph SW16.1 kmh SW 16.3 mph26.2 kmh 25.04 in848.0 mb 0.00 in0.0 mm 0.00 in0.0 mm 0.00 in0.0 mm
06:10 PM 98.8°F37.1°C -5537.2°C - 11.0 mph SW17.7 kmh SW 17.2 mph27.7 kmh 25.04 in848.0 mb 0.00 in0.0 mm 0.00 in0.0 mm 0.00 in0.0 mm
06:15 PM 99.0°F37.2°C -5537.2°C - 12.0 mph SW19.3 kmh SW 16.8 mph27.0 kmh 25.04 in848.0 mb 0.00 in0.0 mm 0.00 in0.0 mm 0.00 in0.0 mm
06:20 PM 99.0°F37.2°C -5537.2°C - 11.0 mph SW17.7 kmh SW 15.2 mph24.5 kmh 25.04 in848.0 mb 0.00 in0.0 mm 0.00 in0.0 mm 0.00 in0.0 mm
06:25 PM 98.4°F36.9°C -5537.2°C - 10.0 mph WSW16.1 kmh WSW 11.6 mph18.7 kmh 25.04 in848.0 mb 0.00 in0.0 mm 0.00 in0.0 mm 0.00 in0.0 mm
06:30 PM 98.4°F36.9°C -5537.2°C - 8.0 mph WSW12.9 kmh WSW 13.4 mph21.6 kmh 25.01 in846.9 mb 0.00 in0.0 mm 0.00 in0.0 mm 0.00 in0.0 mm
06:35 PM 98.6°F37.0°C -5537.2°C - 7.0 mph WSW11.3 kmh WSW 11.0 mph17.7 kmh 25.01 in846.9 mb 0.00 in0.0 mm 0.00 in0.0 mm 0.00 in0.0 mm
06:40 PM 98.8°F37.1°C -5537.2°C - 6.0 mph SW9.7 kmh SW 10.5 mph16.9 kmh 25.01 in846.9 mb 0.00 in0.0 mm 0.00 in0.0 mm 0.00 in0.0 mm
06:45 PM 98.6°F37.0°C -5537.2°C - 6.0 mph S9.7 kmh S 9.6 mph15.4 kmh 25.01 in846.9 mb 0.00 in0.0 mm 0.00 in0.0 mm 0.00 in0.0 mm
06:50 PM 98.8°F37.1°C -5537.2°C - 6.0 mph SSE9.7 kmh SSE 8.7 mph14.0 kmh 25.01 in846.9 mb 0.00 in0.0 mm 0.00 in0.0 mm 0.00 in0.0 mm
06:55 PM 98.2°F36.8°C -5537.2°C - 5.0 mph SSE8.0 kmh SSE 6.7 mph10.8 kmh 25.01 in846.9 mb 0.00 in0.0 mm 0.00 in0.0 mm 0.00 in0.0 mm
07:00 PM 98.1°F36.7°C -5537.2°C - 4.0 mph SSE6.4 kmh SSE 6.7 mph10.8 kmh 25.01 in846.9 mb 0.00 in0.0 mm 0.00 in0.0 mm 0.00 in0.0 mm
07:05 PM 97.3°F36.3°C -5537.2°C - 4.0 mph SE6.4 kmh SE 5.8 mph9.3 kmh 25.01 in846.9 mb 0.00 in0.0 mm 0.00 in0.0 mm 0.00 in0.0 mm
07:10 PM 96.4°F35.8°C -5537.2°C - 3.0 mph SE4.8 kmh SE 4.5 mph7.2 kmh 25.01 in846.9 mb 0.00 in0.0 mm 0.00 in0.0 mm 0.00 in0.0 mm
07:15 PM 95.9°F35.5°C -5537.2°C - 2.0 mph SE3.2 kmh SE 3.6 mph5.8 kmh 25.01 in846.9 mb 0.00 in0.0 mm 0.00 in0.0 mm 0.00 in0.0 mm
07:20 PM 95.4°F35.2°C -5537.2°C - 2.0 mph ESE3.2 kmh ESE 4.0 mph6.4 kmh 25.01 in846.9 mb 0.00 in0.0 mm 0.00 in0.0 mm 0.00 in0.0 mm
07:25 PM 94.6°F34.8°C -5537.2°C - 1.0 mph ESE1.6 kmh ESE 3.1 mph5.0 kmh 25.01 in846.9 mb 0.00 in0.0 mm 0.00 in0.0 mm 0.00 in0.0 mm
07:30 PM 94.3°F34.6°C -5537.2°C - 1.0 mph SE1.6 kmh SE 5.8 mph9.3 kmh 25.01 in846.9 mb 0.00 in0.0 mm 0.00 in0.0 mm 0.00 in0.0 mm
07:35 PM 93.4°F34.1°C -5537.2°C - 2.0 mph SE3.2 kmh SE 4.5 mph7.2 kmh 25.01 in846.9 mb 0.00 in0.0 mm 0.00 in0.0 mm 0.00 in0.0 mm
07:40 PM 92.8°F33.8°C -5537.2°C - 1.0 mph SE1.6 kmh SE 4.0 mph6.4 kmh 25.01 in846.9 mb 0.00 in0.0 mm 0.00 in0.0 mm 0.00 in0.0 mm
07:45 PM 91.9°F33.3°C -5537.2°C - 1.0 mph SE1.6 kmh SE 3.6 mph5.8 kmh 25.01 in846.9 mb 0.00 in0.0 mm 0.00 in0.0 mm 0.00 in0.0 mm
07:50 PM 91.4°F33.0°C -5537.2°C - 2.0 mph SE3.2 kmh SE 4.5 mph7.2 kmh 25.01 in846.9 mb 0.00 in0.0 mm 0.00 in0.0 mm 0.00 in0.0 mm
07:55 PM 91.2°F32.9°C -5537.2°C - 1.0 mph SE1.6 kmh SE 3.1 mph5.0 kmh 25.01 in846.9 mb 0.00 in0.0 mm 0.00 in0.0 mm 0.00 in0.0 mm
08:00 PM 91.8°F33.2°C -5537.2°C - 1.0 mph SE1.6 kmh SE 6.9 mph11.1 kmh 25.01 in846.9 mb 0.00 in0.0 mm 0.00 in0.0 mm 0.00 in0.0 mm
08:05 PM 93.0°F33.9°C -5537.2°C - 5.0 mph SE8.0 kmh SE 11.0 mph17.7 kmh 25.01 in846.9 mb 0.00 in0.0 mm 0.00 in0.0 mm 0.00 in0.0 mm
08:10 PM 94.1°F34.5°C -5537.2°C - 7.0 mph SE11.3 kmh SE 11.6 mph18.7 kmh 25.01 in846.9 mb 0.00 in0.0 mm 0.00 in0.0 mm 0.00 in0.0 mm
08:15 PM 94.3°F34.6°C -5537.2°C - 7.0 mph SE11.3 kmh SE 9.2 mph14.8 kmh 25.01 in846.9 mb 0.00 in0.0 mm 0.00 in0.0 mm 0.00 in0.0 mm
08:20 PM 93.9°F34.4°C -5537.2°C - 5.0 mph ESE8.0 kmh ESE 10.1 mph16.3 kmh 25.01 in846.9 mb 0.00 in0.0 mm 0.00 in0.0 mm 0.00 in0.0 mm
08:25 PM 93.6°F34.2°C -5537.2°C - 6.0 mph E9.7 kmh E 10.1 mph16.3 kmh 25.01 in846.9 mb 0.00 in0.0 mm 0.00 in0.0 mm 0.00 in0.0 mm
08:30 PM 94.1°F34.5°C -5537.2°C - 6.0 mph ESE9.7 kmh ESE 7.8 mph12.6 kmh 25.01 in846.9 mb 0.00 in0.0 mm 0.00 in0.0 mm 0.00 in0.0 mm
08:35 PM 93.6°F34.2°C -5537.2°C - 5.0 mph ESE8.0 kmh ESE 7.4 mph11.9 kmh 25.01 in846.9 mb 0.00 in0.0 mm 0.00 in0.0 mm 0.00 in0.0 mm
08:41 PM 93.0°F33.9°C -5537.2°C - 4.0 mph ESE6.4 kmh ESE 6.7 mph10.8 kmh 25.01 in846.9 mb 0.00 in0.0 mm 0.00 in0.0 mm 0.00 in0.0 mm
08:46 PM 92.3°F33.5°C -5537.2°C - 4.0 mph ESE6.4 kmh ESE 6.3 mph10.1 kmh 25.01 in846.9 mb 0.00 in0.0 mm 0.00 in0.0 mm 0.00 in0.0 mm
08:51 PM 91.9°F33.3°C -5537.2°C - 4.0 mph ESE6.4 kmh ESE 5.8 mph9.3 kmh 25.01 in846.9 mb 0.00 in0.0 mm 0.00 in0.0 mm 0.00 in0.0 mm
08:56 PM 91.6°F33.1°C -5537.2°C - 4.0 mph ESE6.4 kmh ESE 6.9 mph11.1 kmh 25.01 in846.9 mb 0.00 in0.0 mm 0.00 in0.0 mm 0.00 in0.0 mm
09:01 PM 91.4°F33.0°C -5537.2°C - 4.0 mph ESE6.4 kmh ESE 7.4 mph11.9 kmh 25.01 in846.9 mb 0.00 in0.0 mm 0.00 in0.0 mm 0.00 in0.0 mm
09:06 PM 91.4°F33.0°C -5537.2°C - 4.0 mph ESE6.4 kmh ESE 6.7 mph10.8 kmh 25.01 in846.9 mb 0.00 in0.0 mm 0.00 in0.0 mm 0.00 in0.0 mm
09:11 PM 90.9°F32.7°C -5537.2°C - 3.0 mph SE4.8 kmh SE 6.3 mph10.1 kmh 25.01 in846.9 mb 0.00 in0.0 mm 0.00 in0.0 mm 0.00 in0.0 mm
09:16 PM 91.4°F33.0°C -5537.2°C - 4.0 mph SE6.4 kmh SE 11.0 mph17.7 kmh 25.01 in846.9 mb 0.00 in0.0 mm 0.00 in0.0 mm 0.00 in0.0 mm
09:21 PM 91.6°F33.1°C -5537.2°C - 5.0 mph SE8.0 kmh SE 7.8 mph12.6 kmh 25.01 in846.9 mb 0.00 in0.0 mm 0.00 in0.0 mm 0.00 in0.0 mm
09:26 PM 91.4°F33.0°C -5537.2°C - 5.0 mph SE8.0 kmh SE 10.5 mph16.9 kmh 25.01 in846.9 mb 0.00 in0.0 mm 0.00 in0.0 mm 0.00 in0.0 mm
09:31 PM 91.8°F33.2°C -5537.2°C - 6.0 mph ESE9.7 kmh ESE 11.6 mph18.7 kmh 25.04 in848.0 mb 0.00 in0.0 mm 0.00 in0.0 mm 0.00 in0.0 mm
09:36 PM 91.8°F33.2°C -5537.2°C - 6.0 mph SE9.7 kmh SE 12.5 mph20.1 kmh 25.04 in848.0 mb 0.00 in0.0 mm 0.00 in0.0 mm 0.00 in0.0 mm
09:41 PM 91.9°F33.3°C -5537.2°C - 7.0 mph ESE11.3 kmh ESE 13.0 mph20.9 kmh 25.04 in848.0 mb 0.00 in0.0 mm 0.00 in0.0 mm 0.00 in0.0 mm
09:46 PM 91.8°F33.2°C -5537.2°C - 7.0 mph ESE11.3 kmh ESE 10.5 mph16.9 kmh 25.04 in848.0 mb 0.00 in0.0 mm 0.00 in0.0 mm 0.00 in0.0 mm
09:51 PM 91.4°F33.0°C -5537.2°C - 6.0 mph SE9.7 kmh SE 11.0 mph17.7 kmh 25.04 in848.0 mb 0.00 in0.0 mm 0.00 in0.0 mm 0.00 in0.0 mm
09:56 PM 89.4°F31.9°C -5537.2°C - 7.0 mph SE11.3 kmh SE 13.4 mph21.6 kmh 25.04 in848.0 mb 0.00 in0.0 mm 0.00 in0.0 mm 0.00 in0.0 mm
10:01 PM 88.0°F31.1°C -5537.2°C - 7.0 mph S11.3 kmh S 11.2 mph18.0 kmh 25.04 in848.0 mb 0.00 in0.0 mm 0.00 in0.0 mm 0.00 in0.0 mm
10:06 PM 87.8°F31.0°C -5537.2°C - 6.0 mph S9.7 kmh S 9.6 mph15.4 kmh 25.04 in848.0 mb 0.00 in0.0 mm 0.00 in0.0 mm 0.00 in0.0 mm
10:11 PM 88.0°F31.1°C -5537.2°C - 5.0 mph SSE8.0 kmh SSE 9.6 mph15.4 kmh 25.04 in848.0 mb 0.00 in0.0 mm 0.00 in0.0 mm 0.00 in0.0 mm
10:16 PM 89.6°F32.0°C -5537.2°C - 6.0 mph SE9.7 kmh SE 13.4 mph21.6 kmh 25.04 in848.0 mb 0.00 in0.0 mm 0.00 in0.0 mm 0.00 in0.0 mm
10:21 PM 90.1°F32.3°C -5537.2°C - 7.0 mph ESE11.3 kmh ESE 10.5 mph16.9 kmh 25.04 in848.0 mb 0.00 in0.0 mm 0.00 in0.0 mm 0.00 in0.0 mm
10:26 PM 89.8°F32.1°C -5537.2°C - 6.0 mph SE9.7 kmh SE 10.5 mph16.9 kmh 25.04 in848.0 mb 0.00 in0.0 mm 0.00 in0.0 mm 0.00 in0.0 mm
10:31 PM 89.6°F32.0°C -5537.2°C - 6.0 mph SE9.7 kmh SE 10.5 mph16.9 kmh 25.04 in848.0 mb 0.00 in0.0 mm 0.00 in0.0 mm 0.00 in0.0 mm
10:36 PM 89.6°F32.0°C -5537.2°C - 7.0 mph SE11.3 kmh SE 12.1 mph19.5 kmh 25.04 in848.0 mb 0.00 in0.0 mm 0.00 in0.0 mm 0.00 in0.0 mm
10:41 PM 89.2°F31.8°C -5537.2°C - 7.0 mph ESE11.3 kmh ESE 11.6 mph18.7 kmh 25.04 in848.0 mb 0.00 in0.0 mm 0.00 in0.0 mm 0.00 in0.0 mm
10:46 PM 88.7°F31.5°C -5537.2°C - 6.0 mph SE9.7 kmh SE 11.0 mph17.7 kmh 25.04 in848.0 mb 0.00 in0.0 mm 0.00 in0.0 mm 0.00 in0.0 mm
10:51 PM 87.8°F31.0°C -5537.2°C - 5.0 mph SSE8.0 kmh SSE 7.8 mph12.6 kmh 25.04 in848.0 mb 0.00 in0.0 mm 0.00 in0.0 mm 0.00 in0.0 mm
10:56 PM 87.3°F30.7°C -5537.2°C - 4.0 mph SSE6.4 kmh SSE 8.7 mph14.0 kmh 25.04 in848.0 mb 0.00 in0.0 mm 0.00 in0.0 mm 0.00 in0.0 mm
11:01 PM 87.8°F31.0°C -5537.2°C - 5.0 mph SE8.0 kmh SE 11.0 mph17.7 kmh 25.04 in848.0 mb 0.00 in0.0 mm 0.00 in0.0 mm 0.00 in0.0 mm
11:06 PM 89.1°F31.7°C -5537.2°C - 7.0 mph SE11.3 kmh SE 12.1 mph19.5 kmh 25.04 in848.0 mb 0.00 in0.0 mm 0.00 in0.0 mm 0.00 in0.0 mm
11:11 PM 88.9°F31.6°C -5537.2°C - 8.0 mph SE12.9 kmh SE 15.2 mph24.5 kmh 25.04 in848.0 mb 0.00 in0.0 mm 0.00 in0.0 mm 0.00 in0.0 mm
11:16 PM 87.8°F31.0°C -5537.2°C - 6.0 mph SSE9.7 kmh SSE 6.9 mph11.1 kmh 25.04 in848.0 mb 0.00 in0.0 mm 0.00 in0.0 mm 0.00 in0.0 mm
11:21 PM 86.7°F30.4°C -5537.2°C - 4.0 mph SSE6.4 kmh SSE 5.4 mph8.7 kmh 25.04 in848.0 mb 0.00 in0.0 mm 0.00 in0.0 mm 0.00 in0.0 mm
11:26 PM 86.5°F30.3°C -5537.2°C - 3.0 mph S4.8 kmh S 6.7 mph10.8 kmh 25.04 in848.0 mb 0.00 in0.0 mm 0.00 in0.0 mm 0.00 in0.0 mm
11:31 PM 86.7°F30.4°C -5537.2°C - 4.0 mph S6.4 kmh S 5.8 mph9.3 kmh 25.04 in848.0 mb 0.00 in0.0 mm 0.00 in0.0 mm 0.00 in0.0 mm
11:36 PM 86.4°F30.2°C -5537.2°C - 2.0 mph SSE3.2 kmh SSE 4.0 mph6.4 kmh 25.04 in848.0 mb 0.00 in0.0 mm 0.00 in0.0 mm 0.00 in0.0 mm
11:41 PM 86.2°F30.1°C -5537.2°C - 1.0 mph S1.6 kmh S 2.7 mph4.3 kmh 25.04 in848.0 mb 0.00 in0.0 mm 0.00 in0.0 mm 0.00 in0.0 mm
11:46 PM 85.8°F29.9°C -5537.2°C - Calm Calm 2.7 mph4.3 kmh 25.04 in848.0 mb 0.00 in0.0 mm 0.00 in0.0 mm 0.00 in0.0 mm
11:51 PM 85.5°F29.7°C -5537.2°C - Calm Calm 3.1 mph5.0 kmh 25.04 in848.0 mb 0.00 in0.0 mm 0.00 in0.0 mm 0.00 in0.0 mm
11:56 PM 83.8°F28.8°C -5537.2°C - Calm Calm 4.0 mph6.4 kmh 25.04 in848.0 mb 0.00 in0.0 mm 0.00 in0.0 mm 0.00 in0.0 mm